sensor_id;sensor_type;location;lat;lon;timestamp;temperature;humidity
21312;DHT22;18076;52.154;10.570;2023-02-15T00:00:07;0.40;99.90
21312;DHT22;18076;52.154;10.570;2023-02-15T00:02:35;0.40;99.90
21312;DHT22;18076;52.154;10.570;2023-02-15T00:05:01;0.40;99.90
21312;DHT22;18076;52.154;10.570;2023-02-15T00:07:26;0.40;99.90
21312;DHT22;18076;52.154;10.570;2023-02-15T00:09:52;0.40;99.90
21312;DHT22;18076;52.154;10.570;2023-02-15T00:12:17;0.30;99.90
21312;DHT22;18076;52.154;10.570;2023-02-15T00:14:43;0.30;99.90
21312;DHT22;18076;52.154;10.570;2023-02-15T00:17:09;0.30;99.90
21312;DHT22;18076;52.154;10.570;2023-02-15T00:19:34;0.40;99.90
21312;DHT22;18076;52.154;10.570;2023-02-15T00:22:00;0.40;99.90
21312;DHT22;18076;52.154;10.570;2023-02-15T00:24:26;0.40;99.90
21312;DHT22;18076;52.154;10.570;2023-02-15T00:26:52;0.30;99.90
21312;DHT22;18076;52.154;10.570;2023-02-15T00:29:18;0.30;99.90
21312;DHT22;18076;52.154;10.570;2023-02-15T00:31:44;0.40;99.90
21312;DHT22;18076;52.154;10.570;2023-02-15T00:34:13;0.30;99.90
21312;DHT22;18076;52.154;10.570;2023-02-15T00:36:39;0.20;99.90
21312;DHT22;18076;52.154;10.570;2023-02-15T00:39:05;0.20;99.90
21312;DHT22;18076;52.154;10.570;2023-02-15T00:41:31;0.20;99.90
21312;DHT22;18076;52.154;10.570;2023-02-15T00:43:57;0.20;99.90
21312;DHT22;18076;52.154;10.570;2023-02-15T00:46:22;0.10;99.90
21312;DHT22;18076;52.154;10.570;2023-02-15T00:48:48;0.10;99.90
21312;DHT22;18076;52.154;10.570;2023-02-15T00:51:13;0.00;99.90
21312;DHT22;18076;52.154;10.570;2023-02-15T00:53:39;0.10;99.90
21312;DHT22;18076;52.154;10.570;2023-02-15T00:56:04;0.10;99.90
21312;DHT22;18076;52.154;10.570;2023-02-15T00:58:30;0.10;99.90
21312;DHT22;18076;52.154;10.570;2023-02-15T01:01:02;0.10;99.90
21312;DHT22;18076;52.154;10.570;2023-02-15T01:03:28;0.10;99.90
21312;DHT22;18076;52.154;10.570;2023-02-15T01:05:53;0.10;99.90
21312;DHT22;18076;52.154;10.570;2023-02-15T01:08:19;0.10;99.90
21312;DHT22;18076;52.154;10.570;2023-02-15T01:10:45;0.10;99.90
21312;DHT22;18076;52.154;10.570;2023-02-15T01:13:12;0.10;99.90
21312;DHT22;18076;52.154;10.570;2023-02-15T01:15:38;0.00;99.90
21312;DHT22;18076;52.154;10.570;2023-02-15T01:18:04;0.00;99.90
21312;DHT22;18076;52.154;10.570;2023-02-15T01:20:29;-0.10;99.90
21312;DHT22;18076;52.154;10.570;2023-02-15T01:22:56;-0.10;99.90
21312;DHT22;18076;52.154;10.570;2023-02-15T01:25:22;-0.10;99.90
21312;DHT22;18076;52.154;10.570;2023-02-15T01:27:48;-0.10;99.90
21312;DHT22;18076;52.154;10.570;2023-02-15T01:30:14;0.00;99.90
21312;DHT22;18076;52.154;10.570;2023-02-15T01:32:39;-0.10;99.90
21312;DHT22;18076;52.154;10.570;2023-02-15T01:35:05;-0.20;99.90
21312;DHT22;18076;52.154;10.570;2023-02-15T01:37:31;-0.20;99.90
21312;DHT22;18076;52.154;10.570;2023-02-15T01:39:57;-0.20;99.90
21312;DHT22;18076;52.154;10.570;2023-02-15T01:42:23;-0.10;99.90
21312;DHT22;18076;52.154;10.570;2023-02-15T01:44:56;-0.10;99.90
21312;DHT22;18076;52.154;10.570;2023-02-15T01:47:23;-0.10;99.90
21312;DHT22;18076;52.154;10.570;2023-02-15T01:49:53;0.00;99.90
21312;DHT22;18076;52.154;10.570;2023-02-15T01:52:21;0.00;99.90
21312;DHT22;18076;52.154;10.570;2023-02-15T01:54:47;0.00;99.90
21312;DHT22;18076;52.154;10.570;2023-02-15T01:57:14;0.00;99.90
21312;DHT22;18076;52.154;10.570;2023-02-15T01:59:41;0.10;99.90
21312;DHT22;18076;52.154;10.570;2023-02-15T02:02:09;0.00;99.90
21312;DHT22;18076;52.154;10.570;2023-02-15T02:04:39;0.00;99.90
21312;DHT22;18076;52.154;10.570;2023-02-15T02:07:06;0.10;99.90
21312;DHT22;18076;52.154;10.570;2023-02-15T02:09:32;0.10;99.90
21312;DHT22;18076;52.154;10.570;2023-02-15T02:12:00;0.10;99.90
21312;DHT22;18076;52.154;10.570;2023-02-15T02:14:26;0.10;99.90
21312;DHT22;18076;52.154;10.570;2023-02-15T02:16:55;0.10;99.90
21312;DHT22;18076;52.154;10.570;2023-02-15T02:29:43;-0.10;99.90
21312;DHT22;18076;52.154;10.570;2023-02-15T02:32:29;-0.10;99.90
21312;DHT22;18076;52.154;10.570;2023-02-15T02:35:01;-0.10;99.90
21312;DHT22;18076;52.154;10.570;2023-02-15T02:37:34;-0.10;99.90
21312;DHT22;18076;52.154;10.570;2023-02-15T02:42:31;-0.10;99.90
21312;DHT22;18076;52.154;10.570;2023-02-15T02:45:02;0.00;99.90
21312;DHT22;18076;52.154;10.570;2023-02-15T02:47:45;-0.10;99.90
21312;DHT22;18076;52.154;10.570;2023-02-15T02:50:14;-0.10;99.90
21312;DHT22;18076;52.154;10.570;2023-02-15T02:57:43;-0.40;99.90
21312;DHT22;18076;52.154;10.570;2023-02-15T03:00:11;-0.40;99.90
21312;DHT22;18076;52.154;10.570;2023-02-15T03:02:37;-0.40;99.90
21312;DHT22;18076;52.154;10.570;2023-02-15T03:05:05;-0.50;99.90
21312;DHT22;18076;52.154;10.570;2023-02-15T03:07:32;-0.40;99.90
21312;DHT22;18076;52.154;10.570;2023-02-15T03:09:59;-0.50;99.90
21312;DHT22;18076;52.154;10.570;2023-02-15T03:12:30;-0.50;99.90
21312;DHT22;18076;52.154;10.570;2023-02-15T03:15:07;-0.50;99.90
21312;DHT22;18076;52.154;10.570;2023-02-15T03:17:35;-0.50;99.90
21312;DHT22;18076;52.154;10.570;2023-02-15T03:20:06;-0.50;99.90
21312;DHT22;18076;52.154;10.570;2023-02-15T03:22:34;-0.50;99.90
21312;DHT22;18076;52.154;10.570;2023-02-15T03:25:05;-0.40;99.90
21312;DHT22;18076;52.154;10.570;2023-02-15T03:27:33;-0.40;99.90
21312;DHT22;18076;52.154;10.570;2023-02-15T03:30:01;-0.40;99.90
21312;DHT22;18076;52.154;10.570;2023-02-15T03:32:29;-0.40;99.90
21312;DHT22;18076;52.154;10.570;2023-02-15T03:34:55;-0.40;99.90
21312;DHT22;18076;52.154;10.570;2023-02-15T03:37:26;-0.40;99.90
21312;DHT22;18076;52.154;10.570;2023-02-15T03:42:43;-0.50;99.90
21312;DHT22;18076;52.154;10.570;2023-02-15T03:45:11;-0.60;99.90
21312;DHT22;18076;52.154;10.570;2023-02-15T03:47:42;-0.60;99.90
21312;DHT22;18076;52.154;10.570;2023-02-15T03:50:10;-0.60;99.90
21312;DHT22;18076;52.154;10.570;2023-02-15T03:52:56;-0.60;99.90
21312;DHT22;18076;52.154;10.570;2023-02-15T03:55:22;-0.60;99.90
21312;DHT22;18076;52.154;10.570;2023-02-15T03:57:48;-0.60;99.90
21312;DHT22;18076;52.154;10.570;2023-02-15T04:00:32;-0.70;99.90
21312;DHT22;18076;52.154;10.570;2023-02-15T04:03:32;-0.70;99.90
21312;DHT22;18076;52.154;10.570;2023-02-15T04:05:58;-0.60;99.90
21312;DHT22;18076;52.154;10.570;2023-02-15T04:08:25;-0.60;99.90
21312;DHT22;18076;52.154;10.570;2023-02-15T04:11:10;-0.60;99.90
21312;DHT22;18076;52.154;10.570;2023-02-15T04:13:36;-0.50;99.90
21312;DHT22;18076;52.154;10.570;2023-02-15T04:16:02;-0.50;99.90
21312;DHT22;18076;52.154;10.570;2023-02-15T04:18:38;-0.60;99.90
21312;DHT22;18076;52.154;10.570;2023-02-15T04:21:23;-0.60;99.90
21312;DHT22;18076;52.154;10.570;2023-02-15T04:24:08;-0.60;99.90
21312;DHT22;18076;52.154;10.570;2023-02-15T04:26:52;-0.50;99.90
21312;DHT22;18076;52.154;10.570;2023-02-15T04:29:18;-0.60;99.90
21312;DHT22;18076;52.154;10.570;2023-02-15T04:31:44;-0.70;99.90
21312;DHT22;18076;52.154;10.570;2023-02-15T04:34:10;-0.80;99.90
21312;DHT22;18076;52.154;10.570;2023-02-15T04:36:36;-0.80;99.90
21312;DHT22;18076;52.154;10.570;2023-02-15T04:39:02;-0.80;99.90
21312;DHT22;18076;52.154;10.570;2023-02-15T04:41:27;-0.70;99.90
21312;DHT22;18076;52.154;10.570;2023-02-15T04:43:53;-0.70;99.90
21312;DHT22;18076;52.154;10.570;2023-02-15T04:46:18;-0.70;99.90
21312;DHT22;18076;52.154;10.570;2023-02-15T04:48:44;-0.90;99.90
21312;DHT22;18076;52.154;10.570;2023-02-15T04:51:10;-0.90;99.90
21312;DHT22;18076;52.154;10.570;2023-02-15T04:53:36;-0.90;99.90
21312;DHT22;18076;52.154;10.570;2023-02-15T04:56:01;-1.00;99.90
21312;DHT22;18076;52.154;10.570;2023-02-15T04:58:27;-1.00;99.90
21312;DHT22;18076;52.154;10.570;2023-02-15T05:00:55;-1.00;99.90
21312;DHT22;18076;52.154;10.570;2023-02-15T05:03:21;-1.00;99.90
21312;DHT22;18076;52.154;10.570;2023-02-15T05:05:47;-1.00;99.90
21312;DHT22;18076;52.154;10.570;2023-02-15T05:08:12;-1.00;99.90
21312;DHT22;18076;52.154;10.570;2023-02-15T05:10:38;-1.10;99.90
21312;DHT22;18076;52.154;10.570;2023-02-15T05:13:03;-1.00;99.90
21312;DHT22;18076;52.154;10.570;2023-02-15T05:15:29;-1.00;99.90
21312;DHT22;18076;52.154;10.570;2023-02-15T05:17:54;-1.10;99.90
21312;DHT22;18076;52.154;10.570;2023-02-15T05:20:20;-1.10;99.90
21312;DHT22;18076;52.154;10.570;2023-02-15T05:22:45;-1.20;99.90
21312;DHT22;18076;52.154;10.570;2023-02-15T05:25:11;-1.20;99.90
21312;DHT22;18076;52.154;10.570;2023-02-15T05:27:55;-1.30;99.90
21312;DHT22;18076;52.154;10.570;2023-02-15T05:30:39;-1.40;99.90
21312;DHT22;18076;52.154;10.570;2023-02-15T05:33:06;-1.50;99.90
21312;DHT22;18076;52.154;10.570;2023-02-15T05:35:31;-1.60;99.90
21312;DHT22;18076;52.154;10.570;2023-02-15T05:37:57;-1.60;99.90
21312;DHT22;18076;52.154;10.570;2023-02-15T05:40:22;-1.50;99.90
21312;DHT22;18076;52.154;10.570;2023-02-15T05:42:48;-1.40;99.90
21312;DHT22;18076;52.154;10.570;2023-02-15T05:45:14;-1.40;99.90
21312;DHT22;18076;52.154;10.570;2023-02-15T05:47:42;-1.40;99.90
21312;DHT22;18076;52.154;10.570;2023-02-15T05:50:08;-1.40;99.90
21312;DHT22;18076;52.154;10.570;2023-02-15T05:52:34;-1.50;99.90
21312;DHT22;18076;52.154;10.570;2023-02-15T05:55:00;-1.50;99.90
21312;DHT22;18076;52.154;10.570;2023-02-15T05:57:26;-1.50;99.90
21312;DHT22;18076;52.154;10.570;2023-02-15T05:59:51;-1.50;99.90
21312;DHT22;18076;52.154;10.570;2023-02-15T06:02:17;-1.60;99.90
21312;DHT22;18076;52.154;10.570;2023-02-15T06:04:43;-1.60;99.90
21312;DHT22;18076;52.154;10.570;2023-02-15T06:07:08;-1.60;99.90
21312;DHT22;18076;52.154;10.570;2023-02-15T06:09:35;-1.60;99.90
21312;DHT22;18076;52.154;10.570;2023-02-15T06:12:01;-1.60;99.90
21312;DHT22;18076;52.154;10.570;2023-02-15T06:14:26;-1.60;99.90
21312;DHT22;18076;52.154;10.570;2023-02-15T06:16:52;-1.60;99.90
21312;DHT22;18076;52.154;10.570;2023-02-15T06:19:17;-1.60;99.90
21312;DHT22;18076;52.154;10.570;2023-02-15T06:21:44;-1.60;99.90
21312;DHT22;18076;52.154;10.570;2023-02-15T06:24:09;-1.50;99.90
21312;DHT22;18076;52.154;10.570;2023-02-15T06:26:35;-1.50;99.90
21312;DHT22;18076;52.154;10.570;2023-02-15T06:29:01;-1.40;99.90
21312;DHT22;18076;52.154;10.570;2023-02-15T06:31:27;-1.40;99.90
21312;DHT22;18076;52.154;10.570;2023-02-15T06:33:53;-1.50;99.90
21312;DHT22;18076;52.154;10.570;2023-02-15T06:36:26;-1.40;99.90
21312;DHT22;18076;52.154;10.570;2023-02-15T06:38:53;-1.40;99.90
21312;DHT22;18076;52.154;10.570;2023-02-15T06:41:18;-1.40;99.90
21312;DHT22;18076;52.154;10.570;2023-02-15T06:43:44;-1.40;99.90
21312;DHT22;18076;52.154;10.570;2023-02-15T06:46:10;-1.40;99.90
21312;DHT22;18076;52.154;10.570;2023-02-15T06:48:35;-1.50;99.90
21312;DHT22;18076;52.154;10.570;2023-02-15T06:51:01;-1.60;99.90
21312;DHT22;18076;52.154;10.570;2023-02-15T06:53:26;-1.50;99.90
21312;DHT22;18076;52.154;10.570;2023-02-15T06:55:52;-1.50;99.90
21312;DHT22;18076;52.154;10.570;2023-02-15T06:58:17;-1.60;99.90
21312;DHT22;18076;52.154;10.570;2023-02-15T07:00:43;-1.60;99.90
21312;DHT22;18076;52.154;10.570;2023-02-15T07:03:08;-1.60;99.90
21312;DHT22;18076;52.154;10.570;2023-02-15T07:05:34;-1.60;99.90
21312;DHT22;18076;52.154;10.570;2023-02-15T07:07:59;-1.50;99.90
21312;DHT22;18076;52.154;10.570;2023-02-15T07:10:25;-1.40;99.90
21312;DHT22;18076;52.154;10.570;2023-02-15T07:16:02;-1.30;99.90
21312;DHT22;18076;52.154;10.570;2023-02-15T07:18:27;-1.20;99.90
21312;DHT22;18076;52.154;10.570;2023-02-15T07:20:53;-1.20;99.90
21312;DHT22;18076;52.154;10.570;2023-02-15T07:23:18;-1.20;99.90
21312;DHT22;18076;52.154;10.570;2023-02-15T07:25:44;-1.10;99.90
21312;DHT22;18076;52.154;10.570;2023-02-15T07:28:09;-1.10;99.90
21312;DHT22;18076;52.154;10.570;2023-02-15T07:30:35;-1.00;99.90
21312;DHT22;18076;52.154;10.570;2023-02-15T07:33:01;-1.00;99.90
21312;DHT22;18076;52.154;10.570;2023-02-15T07:35:48;-0.90;99.90
21312;DHT22;18076;52.154;10.570;2023-02-15T07:38:14;-0.70;99.90
21312;DHT22;18076;52.154;10.570;2023-02-15T07:40:40;-0.60;99.90
21312;DHT22;18076;52.154;10.570;2023-02-15T07:43:05;-0.50;99.90
21312;DHT22;18076;52.154;10.570;2023-02-15T07:45:31;-0.30;99.90
21312;DHT22;18076;52.154;10.570;2023-02-15T07:47:56;-0.20;99.90
21312;DHT22;18076;52.154;10.570;2023-02-15T07:50:22;-0.10;99.90
21312;DHT22;18076;52.154;10.570;2023-02-15T07:52:47;0.10;99.90
21312;DHT22;18076;52.154;10.570;2023-02-15T07:55:13;0.30;99.90
21312;DHT22;18076;52.154;10.570;2023-02-15T07:57:42;0.40;99.90
21312;DHT22;18076;52.154;10.570;2023-02-15T08:00:09;0.50;99.90
21312;DHT22;18076;52.154;10.570;2023-02-15T08:02:35;0.70;99.90
21312;DHT22;18076;52.154;10.570;2023-02-15T08:05:02;1.00;99.90
21312;DHT22;18076;52.154;10.570;2023-02-15T08:07:28;1.40;99.90
21312;DHT22;18076;52.154;10.570;2023-02-15T08:09:53;1.90;99.90
21312;DHT22;18076;52.154;10.570;2023-02-15T08:12:19;2.70;99.90
21312;DHT22;18076;52.154;10.570;2023-02-15T08:14:44;3.60;99.90
21312;DHT22;18076;52.154;10.570;2023-02-15T08:17:10;4.20;99.90
21312;DHT22;18076;52.154;10.570;2023-02-15T08:19:36;4.80;99.90
21312;DHT22;18076;52.154;10.570;2023-02-15T08:22:02;5.30;99.90
21312;DHT22;18076;52.154;10.570;2023-02-15T08:24:30;6.00;99.90
21312;DHT22;18076;52.154;10.570;2023-02-15T08:26:56;6.90;99.90
21312;DHT22;18076;52.154;10.570;2023-02-15T08:29:22;7.90;99.90
21312;DHT22;18076;52.154;10.570;2023-02-15T08:31:48;8.80;99.90
21312;DHT22;18076;52.154;10.570;2023-02-15T08:34:16;9.70;99.90
21312;DHT22;18076;52.154;10.570;2023-02-15T08:36:42;10.60;99.90
21312;DHT22;18076;52.154;10.570;2023-02-15T08:39:07;11.10;99.90
21312;DHT22;18076;52.154;10.570;2023-02-15T08:41:34;11.90;99.90
21312;DHT22;18076;52.154;10.570;2023-02-15T08:44:01;12.20;99.90
21312;DHT22;18076;52.154;10.570;2023-02-15T08:46:31;12.70;99.90
21312;DHT22;18076;52.154;10.570;2023-02-15T08:48:57;13.10;99.90
21312;DHT22;18076;52.154;10.570;2023-02-15T08:51:24;13.50;99.90
21312;DHT22;18076;52.154;10.570;2023-02-15T08:53:50;13.60;99.90
21312;DHT22;18076;52.154;10.570;2023-02-15T08:56:17;13.20;99.90
21312;DHT22;18076;52.154;10.570;2023-02-15T08:58:43;13.50;99.90
21312;DHT22;18076;52.154;10.570;2023-02-15T09:01:09;13.10;99.90
21312;DHT22;18076;52.154;10.570;2023-02-15T09:03:35;13.20;99.90
21312;DHT22;18076;52.154;10.570;2023-02-15T09:06:01;13.30;99.90
21312;DHT22;18076;52.154;10.570;2023-02-15T09:08:27;13.50;99.90
21312;DHT22;18076;52.154;10.570;2023-02-15T09:11:04;13.70;99.90
21312;DHT22;18076;52.154;10.570;2023-02-15T09:13:29;14.20;99.90
21312;DHT22;18076;52.154;10.570;2023-02-15T09:15:59;14.40;99.90
21312;DHT22;18076;52.154;10.570;2023-02-15T09:18:24;14.70;99.90
21312;DHT22;18076;52.154;10.570;2023-02-15T09:20:50;14.80;99.90
21312;DHT22;18076;52.154;10.570;2023-02-15T09:23:15;14.90;99.90
21312;DHT22;18076;52.154;10.570;2023-02-15T09:25:41;15.20;99.90
21312;DHT22;18076;52.154;10.570;2023-02-15T09:28:07;15.00;99.90
21312;DHT22;18076;52.154;10.570;2023-02-15T09:30:33;15.20;99.90
21312;DHT22;18076;52.154;10.570;2023-02-15T09:32:58;15.30;99.90
21312;DHT22;18076;52.154;10.570;2023-02-15T09:35:24;15.50;99.90
21312;DHT22;18076;52.154;10.570;2023-02-15T09:37:50;15.50;99.90
21312;DHT22;18076;52.154;10.570;2023-02-15T09:40:15;15.70;99.90
21312;DHT22;18076;52.154;10.570;2023-02-15T09:52:48;16.40;99.90
21312;DHT22;18076;52.154;10.570;2023-02-15T09:58:07;15.60;99.90
21312;DHT22;18076;52.154;10.570;2023-02-15T10:05:52;15.60;99.90
21312;DHT22;18076;52.154;10.570;2023-02-15T10:11:10;15.60;99.90
21312;DHT22;18076;52.154;10.570;2023-02-15T10:26:46;15.50;99.90
21312;DHT22;18076;52.154;10.570;2023-02-15T10:34:47;16.10;99.90
21312;DHT22;18076;52.154;10.570;2023-02-15T11:02:52;18.90;99.40
21312;DHT22;18076;52.154;10.570;2023-02-15T11:05:42;18.90;99.90
21312;DHT22;18076;52.154;10.570;2023-02-15T11:08:10;18.90;99.60
21312;DHT22;18076;52.154;10.570;2023-02-15T11:13:04;19.20;99.30
21312;DHT22;18076;52.154;10.570;2023-02-15T11:15:39;19.20;99.10
21312;DHT22;18076;52.154;10.570;2023-02-15T11:20:38;20.00;97.90
21312;DHT22;18076;52.154;10.570;2023-02-15T11:23:13;20.10;96.70
21312;DHT22;18076;52.154;10.570;2023-02-15T11:25:42;20.40;96.20
21312;DHT22;18076;52.154;10.570;2023-02-15T11:28:10;19.80;94.90
21312;DHT22;18076;52.154;10.570;2023-02-15T11:30:42;19.50;95.60
21312;DHT22;18076;52.154;10.570;2023-02-15T11:33:23;19.60;96.50
21312;DHT22;18076;52.154;10.570;2023-02-15T11:38:19;20.00;95.70
21312;DHT22;18076;52.154;10.570;2023-02-15T11:40:51;19.90;94.70
21312;DHT22;18076;52.154;10.570;2023-02-15T11:43:28;19.80;94.90
21312;DHT22;18076;52.154;10.570;2023-02-15T11:45:55;19.60;94.90
21312;DHT22;18076;52.154;10.570;2023-02-15T11:48:21;19.60;95.30
21312;DHT22;18076;52.154;10.570;2023-02-15T11:50:47;19.70;95.60
21312;DHT22;18076;52.154;10.570;2023-02-15T11:53:17;19.60;95.00
21312;DHT22;18076;52.154;10.570;2023-02-15T11:55:43;19.50;95.40
21312;DHT22;18076;52.154;10.570;2023-02-15T12:00:35;19.90;95.40
21312;DHT22;18076;52.154;10.570;2023-02-15T12:03:39;20.20;94.70
21312;DHT22;18076;52.154;10.570;2023-02-15T12:06:01;19.90;94.70
21312;DHT22;18076;52.154;10.570;2023-02-15T12:08:30;19.80;94.50
21312;DHT22;18076;52.154;10.570;2023-02-15T12:13:24;19.90;94.40
21312;DHT22;18076;52.154;10.570;2023-02-15T12:15:51;20.10;94.30
21312;DHT22;18076;52.154;10.570;2023-02-15T12:18:24;20.60;93.90
21312;DHT22;18076;52.154;10.570;2023-02-15T12:20:52;20.50;90.70
21312;DHT22;18076;52.154;10.570;2023-02-15T12:23:17;19.50;91.00
21312;DHT22;18076;52.154;10.570;2023-02-15T12:25:53;19.10;91.10
21312;DHT22;18076;52.154;10.570;2023-02-15T12:30:57;19.20;90.30
21312;DHT22;18076;52.154;10.570;2023-02-15T12:35:54;18.30;90.00
21312;DHT22;18076;52.154;10.570;2023-02-15T12:38:21;18.00;89.50
21312;DHT22;18076;52.154;10.570;2023-02-15T12:41:23;17.50;89.30
21312;DHT22;18076;52.154;10.570;2023-02-15T12:43:40;16.90;90.30
21312;DHT22;18076;52.154;10.570;2023-02-15T12:46:22;16.70;90.30
21312;DHT22;18076;52.154;10.570;2023-02-15T12:49:33;16.80;91.00
21312;DHT22;18076;52.154;10.570;2023-02-15T12:51:55;17.10;91.10
21312;DHT22;18076;52.154;10.570;2023-02-15T12:56:51;17.30;90.30
21312;DHT22;18076;52.154;10.570;2023-02-15T12:59:17;16.90;90.10
21312;DHT22;18076;52.154;10.570;2023-02-15T13:01:45;17.20;90.30
21312;DHT22;18076;52.154;10.570;2023-02-15T13:04:18;17.00;90.60
21312;DHT22;18076;52.154;10.570;2023-02-15T13:06:46;17.30;90.90
21312;DHT22;18076;52.154;10.570;2023-02-15T13:09:15;17.80;91.00
21312;DHT22;18076;52.154;10.570;2023-02-15T13:11:42;17.60;90.30
21312;DHT22;18076;52.154;10.570;2023-02-15T13:17:05;16.90;90.30
21312;DHT22;18076;52.154;10.570;2023-02-15T13:19:33;16.70;91.00
21312;DHT22;18076;52.154;10.570;2023-02-15T13:22:01;16.90;91.20
21312;DHT22;18076;52.154;10.570;2023-02-15T13:24:29;17.30;91.60
21312;DHT22;18076;52.154;10.570;2023-02-15T13:26:57;17.50;90.50
21312;DHT22;18076;52.154;10.570;2023-02-15T13:31:49;18.20;90.40
21312;DHT22;18076;52.154;10.570;2023-02-15T13:34:16;18.30;88.50
21312;DHT22;18076;52.154;10.570;2023-02-15T13:36:48;18.10;89.50
21312;DHT22;18076;52.154;10.570;2023-02-15T13:42:05;18.30;88.60
21312;DHT22;18076;52.154;10.570;2023-02-15T13:44:53;17.70;89.20
21312;DHT22;18076;52.154;10.570;2023-02-15T13:52:40;17.70;89.90
21312;DHT22;18076;52.154;10.570;2023-02-15T13:55:11;17.20;89.20
21312;DHT22;18076;52.154;10.570;2023-02-15T13:57:44;16.90;90.20
21312;DHT22;18076;52.154;10.570;2023-02-15T14:00:22;16.60;89.90
21312;DHT22;18076;52.154;10.570;2023-02-15T14:15:47;16.60;91.10
21312;DHT22;18076;52.154;10.570;2023-02-15T14:25:57;16.50;90.60
21312;DHT22;18076;52.154;10.570;2023-02-15T14:31:11;16.10;90.70
21312;DHT22;18076;52.154;10.570;2023-02-15T14:33:39;15.60;91.20
21312;DHT22;18076;52.154;10.570;2023-02-15T14:36:07;15.10;91.30
21312;DHT22;18076;52.154;10.570;2023-02-15T14:38:41;14.90;91.90
21312;DHT22;18076;52.154;10.570;2023-02-15T14:46:38;15.20;92.30
21312;DHT22;18076;52.154;10.570;2023-02-15T14:49:11;15.10;92.10
21312;DHT22;18076;52.154;10.570;2023-02-15T14:54:08;14.90;92.30
21312;DHT22;18076;52.154;10.570;2023-02-15T14:56:37;14.90;92.20
21312;DHT22;18076;52.154;10.570;2023-02-15T15:01:42;14.60;92.40
21312;DHT22;18076;52.154;10.570;2023-02-15T15:04:12;14.10;92.50
21312;DHT22;18076;52.154;10.570;2023-02-15T15:06:40;13.60;93.10
21312;DHT22;18076;52.154;10.570;2023-02-15T15:09:14;13.30;93.90
21312;DHT22;18076;52.154;10.570;2023-02-15T15:11:45;13.20;94.40
21312;DHT22;18076;52.154;10.570;2023-02-15T15:16:56;13.10;94.70
21312;DHT22;18076;52.154;10.570;2023-02-15T15:22:12;12.80;95.20
21312;DHT22;18076;52.154;10.570;2023-02-15T15:29:51;12.60;96.50
21312;DHT22;18076;52.154;10.570;2023-02-15T15:32:18;12.60;96.50
21312;DHT22;18076;52.154;10.570;2023-02-15T15:47:58;12.40;98.00
21312;DHT22;18076;52.154;10.570;2023-02-15T15:50:27;12.30;98.40
21312;DHT22;18076;52.154;10.570;2023-02-15T15:52:54;12.20;98.50
21312;DHT22;18076;52.154;10.570;2023-02-15T15:55:21;12.20;98.90
21312;DHT22;18076;52.154;10.570;2023-02-15T15:57:49;12.00;99.00
21312;DHT22;18076;52.154;10.570;2023-02-15T16:02:51;11.80;99.60
21312;DHT22;18076;52.154;10.570;2023-02-15T16:05:17;11.70;99.90
21312;DHT22;18076;52.154;10.570;2023-02-15T16:07:42;11.60;99.90
21312;DHT22;18076;52.154;10.570;2023-02-15T16:10:19;11.60;99.90
21312;DHT22;18076;52.154;10.570;2023-02-15T16:12:45;11.50;99.90
21312;DHT22;18076;52.154;10.570;2023-02-15T16:15:25;11.30;99.90
21312;DHT22;18076;52.154;10.570;2023-02-15T16:17:55;11.20;99.90
21312;DHT22;18076;52.154;10.570;2023-02-15T16:22:47;10.70;99.90
21312;DHT22;18076;52.154;10.570;2023-02-15T16:27:43;10.50;99.90
21312;DHT22;18076;52.154;10.570;2023-02-15T16:32:47;10.40;99.90
21312;DHT22;18076;52.154;10.570;2023-02-15T16:35:17;10.30;99.90
21312;DHT22;18076;52.154;10.570;2023-02-15T16:37:43;10.10;99.90
21312;DHT22;18076;52.154;10.570;2023-02-15T16:43:01;9.90;99.90
21312;DHT22;18076;52.154;10.570;2023-02-15T16:45:27;9.80;99.90
21312;DHT22;18076;52.154;10.570;2023-02-15T16:47:57;9.70;99.90
21312;DHT22;18076;52.154;10.570;2023-02-15T16:50:31;9.70;99.90
21312;DHT22;18076;52.154;10.570;2023-02-15T16:52:58;9.60;99.90
21312;DHT22;18076;52.154;10.570;2023-02-15T16:55:25;9.50;99.90
21312;DHT22;18076;52.154;10.570;2023-02-15T16:57:51;9.40;99.90
21312;DHT22;18076;52.154;10.570;2023-02-15T17:00:20;9.40;99.90
21312;DHT22;18076;52.154;10.570;2023-02-15T17:02:59;9.40;99.90
21312;DHT22;18076;52.154;10.570;2023-02-15T17:05:30;9.30;99.90
21312;DHT22;18076;52.154;10.570;2023-02-15T17:13:00;8.90;99.90
21312;DHT22;18076;52.154;10.570;2023-02-15T17:15:36;8.70;99.90
21312;DHT22;18076;52.154;10.570;2023-02-15T17:20:27;8.50;99.90
21312;DHT22;18076;52.154;10.570;2023-02-15T17:22:53;8.30;99.90
21312;DHT22;18076;52.154;10.570;2023-02-15T17:25:20;8.20;99.90
21312;DHT22;18076;52.154;10.570;2023-02-15T17:27:50;8.10;99.90
21312;DHT22;18076;52.154;10.570;2023-02-15T17:30:33;7.90;99.90
21312;DHT22;18076;52.154;10.570;2023-02-15T17:33:00;7.80;99.90
21312;DHT22;18076;52.154;10.570;2023-02-15T17:35:30;7.70;99.90
21312;DHT22;18076;52.154;10.570;2023-02-15T17:38:06;7.60;99.90
21312;DHT22;18076;52.154;10.570;2023-02-15T17:40:40;7.50;99.90
21312;DHT22;18076;52.154;10.570;2023-02-15T17:43:05;7.40;99.90
21312;DHT22;18076;52.154;10.570;2023-02-15T17:45:35;7.30;99.90
21312;DHT22;18076;52.154;10.570;2023-02-15T17:48:02;7.30;99.90
21312;DHT22;18076;52.154;10.570;2023-02-15T17:50:28;7.20;99.90
21312;DHT22;18076;52.154;10.570;2023-02-15T17:52:54;7.10;99.90
21312;DHT22;18076;52.154;10.570;2023-02-15T17:55:21;7.10;99.90
21312;DHT22;18076;52.154;10.570;2023-02-15T17:58:12;7.00;99.90
21312;DHT22;18076;52.154;10.570;2023-02-15T18:00:39;7.00;99.90
21312;DHT22;18076;52.154;10.570;2023-02-15T18:03:24;7.00;99.90
21312;DHT22;18076;52.154;10.570;2023-02-15T18:06:08;6.90;99.90
21312;DHT22;18076;52.154;10.570;2023-02-15T18:08:53;6.80;99.90
21312;DHT22;18076;52.154;10.570;2023-02-15T18:11:37;6.70;99.90
21312;DHT22;18076;52.154;10.570;2023-02-15T18:14:04;6.60;99.90
21312;DHT22;18076;52.154;10.570;2023-02-15T18:16:31;6.40;99.90
21312;DHT22;18076;52.154;10.570;2023-02-15T18:18:57;6.40;99.90
21312;DHT22;18076;52.154;10.570;2023-02-15T18:21:23;6.30;99.90
21312;DHT22;18076;52.154;10.570;2023-02-15T18:23:49;6.20;99.90
21312;DHT22;18076;52.154;10.570;2023-02-15T18:26:18;6.20;99.90
21312;DHT22;18076;52.154;10.570;2023-02-15T18:28:44;6.10;99.90
21312;DHT22;18076;52.154;10.570;2023-02-15T18:31:10;6.10;99.90
21312;DHT22;18076;52.154;10.570;2023-02-15T18:33:46;6.00;99.90
21312;DHT22;18076;52.154;10.570;2023-02-15T18:36:14;6.00;99.90
21312;DHT22;18076;52.154;10.570;2023-02-15T18:38:40;5.90;99.90
21312;DHT22;18076;52.154;10.570;2023-02-15T18:41:06;5.90;99.90
21312;DHT22;18076;52.154;10.570;2023-02-15T18:43:31;5.80;99.90
21312;DHT22;18076;52.154;10.570;2023-02-15T18:45:57;5.70;99.90
21312;DHT22;18076;52.154;10.570;2023-02-15T18:48:23;5.70;99.90